Vinegar Bend, AL (36584)

3:53 AM CDT on July 12, 2014 (GMT -0500)
RAWS GREENE MS US (MLKKM6) Elev 155 ft | 31.17 °N, 88.61 °W | Change Station

Current weather conditions updated 39 minutes ago

Clear
Clear
71 °F
Feels Like 71 °F
N
0
Wind Variable Wind from North
Gusts 3.0 mph

Today is forecast to be nearly the same temperature as yesterday. Partly cloudy with a stray thunderstorm.

Today
High -- | Low -- °F
--% Chance of Precip.
Yesterday
High -- | Low -- °F
Precip. -- in
5:58 AM 7:59 PM
Full, 100% visible
Pressure 30.10 in
Visibility 5.0 miles
Clouds Clear
Dew Point 69 °F
Humidity 94%
Rainfall -999.00 in
Snow Depth Not available.
UV 0 out of 12
Pollen 3.10 out of 12
Air Quality Not available.
Flu Activity Sporadic
METAR KMOB 120756Z AUTO 30003KT 5SM BR CLR 22/22 A3011 RMK AO2 SLP191 T02170217 $

More Conditions Fewer Conditions

Pressure 30.10 in
Visibility 5.0 miles
Clouds Clear
Dew Point 69 °F
Humidity 94%
Rainfall -999.00 in
Snow Depth Not available.
UV 0 out of 12
Pollen 3.10 out of 12
Air Quality Not available.
Flu Activity Sporadic
METAR KMOB 120756Z AUTO 30003KT 5SM BR CLR 22/22 A3011 RMK AO2 SLP191 T02170217 $

More Conditions Fewer Conditions

10-Day Weather Forecast

Almanac

Astronomy

Jul. 12, 2014 Rise Set
Actual Time 5:58 AM CDT 7:59 PM CDT
Civil Twilight 5:30 AM CDT 8:27 PM CDT
Nautical Twilight 4:57 AM CDT 9:00 PM CDT
Astronomical Twilight 4:21 AM CDT 9:36 PM CDT
Moon 8:09 PM CDT 6:11 AM CDT
Length of Visible Light 14h 56m
Length of Day
14h 01m
Tomorrow will be 0m 52s shorter.
Full, 100% of the Moon is Illuminated
Today
Full
Jul 12
Full
Jul 18
Last Quarter
Jul 26
New
Aug 3
First Quarter

Today's Extremes

State Highs State Lows

Community

WunderPhotos

Upload Photos

1,732,746 photos uploaded!

Nearby

Snow Depth

Station Depth Elevation
No new snow has been reported.

Earthquake Activity

City Distance Mag. Time & Date
No recent earthquake activity has been reported nearby.
Minimum magnitude displayed is 2.5.

Coastal Water Temperatures

Place Temperature
No Stations Reporting

Nearby Weather Stations

Station Location Temp. Dew Point Humidity Wind Precip. Elev Updated Type
RAWS GREENE MS, Leakesville, MS 71 °F 69 °F 94% North  at  0 mph 0.00 in / hr 155 ft 3:14 AM CDT MADIS
Markwood, Citronelle, AL 72.8 °F 72 °F 99% SW  at  0.0 mph 0.00 in / hr 308 ft 3:46 AM CDT Normal

Show More Stations Show Fewer Stations